Time;durP1;ratioP1;P1;durP2;ratioP2;P2;SDS_P1;SDS_P2;PMS_P1;PMS_P2;Temp;Humidity;BMP_temperature;BMP_pressure;BME280_temperature;BME280_humidity;BME280_pressure;Samples;Min_cycle;Max_cycle;Signal;HPM_P1;HPM_P2
2022/12/26 00:02:08;;;;;;;;;;;10.50;99.90;;;;;;5051053;28;19917;-54
2022/12/26 00:04:34;;;;;;;;;;;10.50;99.90;;;;;;5051163;28;20315;-55
2022/12/26 00:07:00;;;;;;;;;;;10.50;99.90;;;;;;5051084;28;19915;-56
2022/12/26 00:09:25;;;;;;;;;;;10.50;99.90;;;;;;5050895;28;20293;-55
2022/12/26 00:11:51;;;;;;;;;;;10.50;99.90;;;;;;5050953;28;19972;-52
2022/12/26 00:14:16;;;;;;;;;;;10.50;99.90;;;;;;5050823;28;19959;-55
2022/12/26 00:16:43;;;;;;;;;;;10.50;99.90;;;;;;5050700;28;19939;-53
2022/12/26 00:19:09;;;;;;;;;;;10.50;99.90;;;;;;5050896;28;19916;-54
2022/12/26 00:21:35;;;;;;;;;;;10.50;99.90;;;;;;5050930;28;19916;-56
2022/12/26 00:24:00;;;;;;;;;;;10.50;99.90;;;;;;5050793;28;19905;-55
2022/12/26 00:26:30;;;;;;;;;;;10.40;99.90;;;;;;5050691;28;19920;-55
2022/12/26 00:28:56;;;;;;;;;;;10.50;99.90;;;;;;5049467;28;19916;-54
2022/12/26 00:31:23;;;;;;;;;;;10.50;99.90;;;;;;5050721;28;19908;-54
2022/12/26 00:33:49;;;;;;;;;;;10.50;99.90;;;;;;5050857;28;19912;-50
2022/12/26 00:36:16;;;;;;;;;;;10.40;99.90;;;;;;5050867;28;19916;-54
2022/12/26 00:38:42;;;;;;;;;;;10.40;99.90;;;;;;5050418;28;20002;-54
2022/12/26 00:41:08;;;;;;;;;;;10.40;99.90;;;;;;5050583;28;19913;-56
2022/12/26 00:43:34;;;;;;;;;;;10.40;99.90;;;;;;5050701;28;20289;-55
2022/12/26 00:46:00;;;;;;;;;;;10.30;99.90;;;;;;5049479;28;19935;-53
2022/12/26 00:48:26;;;;;;;;;;;10.40;99.90;;;;;;5050553;28;19909;-55
2022/12/26 00:50:52;;;;;;;;;;;10.30;99.90;;;;;;5050500;28;20393;-54
2022/12/26 00:53:18;;;;;;;;;;;10.30;99.90;;;;;;5050627;28;20004;-52
2022/12/26 00:55:44;;;;;;;;;;;10.30;99.90;;;;;;5050617;28;19909;-54
2022/12/26 00:58:09;;;;;;;;;;;10.30;99.90;;;;;;5050279;28;19912;-55
2022/12/26 01:00:35;;;;;;;;;;;10.40;99.90;;;;;;5050964;28;19923;-54
2022/12/26 01:03:01;;;;;;;;;;;10.30;99.90;;;;;;5054226;28;19913;-55
2022/12/26 01:05:27;;;;;;;;;;;10.40;99.90;;;;;;5054222;28;19909;-54
2022/12/26 01:07:52;;;;;;;;;;;10.30;99.90;;;;;;5054078;28;19959;-55
2022/12/26 01:10:18;;;;;;;;;;;10.40;99.90;;;;;;5053914;28;19909;-54
2022/12/26 01:12:43;;;;;;;;;;;10.40;99.90;;;;;;5053981;28;19915;-55
2022/12/26 01:15:09;;;;;;;;;;;10.40;99.90;;;;;;5054206;28;20006;-52
2022/12/26 01:17:35;;;;;;;;;;;10.40;99.90;;;;;;5054080;28;19936;-55
2022/12/26 01:20:01;;;;;;;;;;;10.40;99.90;;;;;;5053701;28;20042;-56
2022/12/26 01:22:27;;;;;;;;;;;10.40;99.90;;;;;;5053909;28;19913;-55
2022/12/26 01:24:53;;;;;;;;;;;10.40;99.90;;;;;;5053856;28;20339;-55
2022/12/26 01:27:19;;;;;;;;;;;10.40;99.90;;;;;;5053660;28;19915;-56
2022/12/26 01:29:44;;;;;;;;;;;10.40;99.90;;;;;;5053578;28;20011;-54
2022/12/26 01:32:10;;;;;;;;;;;10.40;99.90;;;;;;5053750;28;19908;-55
2022/12/26 01:34:35;;;;;;;;;;;10.40;99.90;;;;;;5052370;28;20008;-55
2022/12/26 01:37:01;;;;;;;;;;;10.40;99.90;;;;;;5053670;28;19908;-55
2022/12/26 01:39:27;;;;;;;;;;;10.40;99.90;;;;;;5053444;28;19943;-53
2022/12/26 01:41:53;;;;;;;;;;;10.40;99.90;;;;;;5053506;28;19979;-54
2022/12/26 01:44:37;;;;;;;;;;;10.40;99.90;;;;;;5053577;28;19909;-54
2022/12/26 01:47:03;;;;;;;;;;;10.30;99.90;;;;;;5053334;28;19932;-56
2022/12/26 01:49:33;;;;;;;;;;;10.30;99.90;;;;;;5053234;28;20362;-51
2022/12/26 01:52:05;;;;;;;;;;;10.30;99.90;;;;;;5053483;28;20027;-52
2022/12/26 01:54:33;;;;;;;;;;;10.30;99.90;;;;;;5053238;28;20276;-54
2022/12/26 01:56:59;;;;;;;;;;;10.30;99.90;;;;;;5053172;28;20384;-55
2022/12/26 01:59:27;;;;;;;;;;;10.30;99.90;;;;;;5053253;28;19915;-53
2022/12/26 02:01:53;;;;;;;;;;;10.30;99.90;;;;;;5053024;28;20007;-55
2022/12/26 02:07:08;;;;;;;;;;;10.30;99.90;;;;;;5052842;28;19951;-53
2022/12/26 02:09:34;;;;;;;;;;;10.20;99.90;;;;;;5053156;28;19940;-55
2022/12/26 02:12:00;;;;;;;;;;;10.20;99.90;;;;;;5052916;28;20003;-54
2022/12/26 02:14:26;;;;;;;;;;;10.20;99.90;;;;;;5052959;28;20373;-55
2022/12/26 02:16:51;;;;;;;;;;;10.20;99.90;;;;;;5052764;28;20273;-56
2022/12/26 02:19:23;;;;;;;;;;;10.20;99.90;;;;;;5052689;28;19919;-56
2022/12/26 02:22:07;;;;;;;;;;;10.20;99.90;;;;;;5052843;28;19912;-54
2022/12/26 02:24:48;;;;;;;;;;;10.20;99.90;;;;;;5052820;28;19915;-54
2022/12/26 02:27:16;;;;;;;;;;;10.20;99.90;;;;;;5052529;28;19908;-54
2022/12/26 02:29:55;;;;;;;;;;;10.20;99.90;;;;;;5051241;28;19909;-55
2022/12/26 02:32:31;;;;;;;;;;;10.30;99.90;;;;;;5052689;28;20250;-52
2022/12/26 02:35:14;;;;;;;;;;;10.30;99.90;;;;;;5052505;28;19955;-53
2022/12/26 02:37:54;;;;;;;;;;;10.30;99.90;;;;;;5052438;28;19908;-52
2022/12/26 02:40:23;;;;;;;;;;;10.30;99.90;;;;;;5052159;28;20297;-53
2022/12/26 02:42:55;;;;;;;;;;;10.30;99.90;;;;;;5052507;28;19955;-55
2022/12/26 02:48:51;;;;;;;;;;;10.30;99.90;;;;;;4970478;28;19933;-46
2022/12/26 03:14:26;;;;;;;;;;;10.30;99.90;;;;;;5031897;28;19935;-50
2022/12/26 03:19:57;;;;;;;;;;;10.30;99.90;;;;;;5031670;28;19975;-49
2022/12/26 03:22:31;;;;;;;;;;;10.20;99.90;;;;;;5031693;28;19913;-50
2022/12/26 03:27:46;;;;;;;;;;;10.20;99.90;;;;;;5031478;28;19908;-47
2022/12/26 03:32:57;;;;;;;;;;;10.20;99.90;;;;;;5031617;28;20270;-50
2022/12/26 03:35:23;;;;;;;;;;;10.20;99.90;;;;;;5031568;28;19913;-47
2022/12/26 03:37:49;;;;;;;;;;;10.20;99.90;;;;;;5031353;28;20465;-48
2022/12/26 04:20:26;;;;;;;;;;;9.80;99.90;;;;;;5030825;28;19994;-51
2022/12/26 04:45:15;;;;;;;;;;;9.80;99.90;;;;;;5034807;28;19919;-52
2022/12/26 04:50:10;;;;;;;;;;;9.70;99.90;;;;;;5034515;28;19921;-50
2022/12/26 04:50:28;;;;;;;;;;;9.70;99.90;;;;;;5034367;28;20266;-47
2022/12/26 04:52:59;;;;;;;;;;;9.70;99.90;;;;;;5034808;28;19995;-50
2022/12/26 04:55:27;;;;;;;;;;;9.70;99.90;;;;;;5034863;28;19992;-51
2022/12/26 04:57:52;;;;;;;;;;;9.70;99.90;;;;;;5034361;28;19913;-49
2022/12/26 05:00:18;;;;;;;;;;;9.80;99.90;;;;;;5034756;28;20013;-48
2022/12/26 05:11:07;;;;;;;;;;;9.60;99.90;;;;;;5034239;28;19909;-47
2022/12/26 05:13:33;;;;;;;;;;;9.60;99.90;;;;;;5034259;28;19909;-48
2022/12/26 05:29:39;;;;;;;;;;;9.60;99.90;;;;;;5033642;28;19919;-50
2022/12/26 05:32:05;;;;;;;;;;;9.70;99.90;;;;;;5034080;28;20281;-51
2022/12/26 05:34:31;;;;;;;;;;;9.70;99.90;;;;;;5033736;28;20338;-47
2022/12/26 05:36:57;;;;;;;;;;;9.80;99.90;;;;;;5033768;28;19913;-52
2022/12/26 05:39:23;;;;;;;;;;;9.90;99.90;;;;;;5033580;28;19909;-53
2022/12/26 05:41:49;;;;;;;;;;;9.80;99.90;;;;;;5033556;28;19913;-50
2022/12/26 05:44:14;;;;;;;;;;;9.80;99.90;;;;;;5033645;28;19959;-52
2022/12/26 05:46:41;;;;;;;;;;;9.80;99.90;;;;;;5032712;28;20285;-51
2022/12/26 05:49:07;;;;;;;;;;;9.80;99.90;;;;;;5033442;28;19948;-52
2022/12/26 05:51:33;;;;;;;;;;;9.80;99.90;;;;;;5033892;28;19916;-50
2022/12/26 05:53:59;;;;;;;;;;;9.80;99.90;;;;;;5033462;28;19913;-52
2022/12/26 05:56:24;;;;;;;;;;;9.80;99.90;;;;;;5033222;28;19909;-54
2022/12/26 05:58:57;;;;;;;;;;;9.80;99.90;;;;;;5033251;28;20555;-48
2022/12/26 06:01:23;;;;;;;;;;;9.80;99.90;;;;;;5033154;28;19916;-49
2022/12/26 06:03:50;;;;;;;;;;;9.70;99.90;;;;;;5033535;28;19920;-50
2022/12/26 06:06:16;;;;;;;;;;;9.70;99.90;;;;;;5033283;28;19916;-49
2022/12/26 06:08:42;;;;;;;;;;;9.70;99.90;;;;;;5033023;28;19905;-52
2022/12/26 06:11:11;;;;;;;;;;;9.80;99.90;;;;;;5033063;28;19909;-50
2022/12/26 06:13:37;;;;;;;;;;;9.70;99.90;;;;;;5033481;28;19909;-47
2022/12/26 06:16:07;;;;;;;;;;;9.80;99.90;;;;;;5033010;28;19909;-50
2022/12/26 06:18:33;;;;;;;;;;;9.80;99.90;;;;;;5032686;28;19909;-48
2022/12/26 06:21:01;;;;;;;;;;;9.80;99.90;;;;;;5033050;28;20270;-47
2022/12/26 06:23:27;;;;;;;;;;;9.90;99.90;;;;;;5032956;28;19913;-48
2022/12/26 06:25:56;;;;;;;;;;;9.80;99.90;;;;;;5032723;28;20255;-50
2022/12/26 06:28:22;;;;;;;;;;;9.80;99.90;;;;;;5032808;28;19909;-46
2022/12/26 06:30:48;;;;;;;;;;;9.90;99.90;;;;;;5032569;28;19909;-47
2022/12/26 06:33:14;;;;;;;;;;;9.90;99.90;;;;;;5032827;28;19978;-46
2022/12/26 06:35:39;;;;;;;;;;;9.80;99.90;;;;;;5032694;28;19916;-49
2022/12/26 06:38:05;;;;;;;;;;;9.80;99.90;;;;;;5032448;28;19916;-46
2022/12/26 06:40:30;;;;;;;;;;;9.80;99.90;;;;;;5032228;28;19909;-46
2022/12/26 06:42:56;;;;;;;;;;;9.90;99.90;;;;;;5032614;28;19913;-51
2022/12/26 06:45:22;;;;;;;;;;;9.70;99.90;;;;;;5032279;28;20362;-48
2022/12/26 06:47:47;;;;;;;;;;;9.80;99.90;;;;;;5032258;28;19909;-50
2022/12/26 06:50:13;;;;;;;;;;;9.70;99.90;;;;;;5032320;28;20391;-51
2022/12/26 06:52:38;;;;;;;;;;;9.70;99.90;;;;;;5032407;28;19920;-50
2022/12/26 06:55:04;;;;;;;;;;;9.60;99.90;;;;;;5032180;28;19944;-53
2022/12/26 06:57:30;;;;;;;;;;;9.60;99.90;;;;;;5032119;28;19916;-47
2022/12/26 06:59:55;;;;;;;;;;;9.70;99.90;;;;;;5031389;28;19909;-47
2022/12/26 07:02:21;;;;;;;;;;;9.80;99.90;;;;;;5032296;28;20273;-47
2022/12/26 07:04:46;;;;;;;;;;;9.80;99.90;;;;;;5032216;28;19963;-49
2022/12/26 07:07:12;;;;;;;;;;;9.80;99.90;;;;;;5031980;28;19916;-52
2022/12/26 07:09:38;;;;;;;;;;;9.80;99.90;;;;;;5031854;28;19920;-50
2022/12/26 07:12:03;;;;;;;;;;;9.90;99.90;;;;;;5032477;28;20270;-51
2022/12/26 07:14:29;;;;;;;;;;;9.90;99.90;;;;;;5031882;28;19909;-49
2022/12/26 07:16:55;;;;;;;;;;;9.90;99.90;;;;;;5031814;28;19909;-49
2022/12/26 07:19:21;;;;;;;;;;;9.90;99.90;;;;;;5030431;28;19909;-48
2022/12/26 07:21:46;;;;;;;;;;;10.00;99.90;;;;;;5031677;28;19913;-49
2022/12/26 07:24:13;;;;;;;;;;;9.90;99.90;;;;;;5031589;28;19909;-48
2022/12/26 07:26:39;;;;;;;;;;;9.90;99.90;;;;;;5031660;28;19917;-51
2022/12/26 07:29:04;;;;;;;;;;;9.90;99.90;;;;;;5031629;28;19962;-52
2022/12/26 07:31:30;;;;;;;;;;;9.90;99.90;;;;;;5031676;28;19912;-48
2022/12/26 07:33:55;;;;;;;;;;;9.90;99.90;;;;;;5031659;28;20369;-52
2022/12/26 07:36:22;;;;;;;;;;;9.90;99.90;;;;;;5031309;28;19909;-52
2022/12/26 07:38:47;;;;;;;;;;;9.90;99.90;;;;;;5031353;28;19909;-49
2022/12/26 07:43:59;;;;;;;;;;;9.90;99.90;;;;;;5031430;28;19955;-46
2022/12/26 07:46:24;;;;;;;;;;;10.00;99.90;;;;;;5031104;28;19971;-46
2022/12/26 07:48:50;;;;;;;;;;;10.10;99.90;;;;;;5031232;28;19971;-47
2022/12/26 07:51:15;;;;;;;;;;;10.10;99.90;;;;;;5031299;28;19909;-51
2022/12/26 07:53:41;;;;;;;;;;;10.10;99.90;;;;;;5031310;28;19909;-49
2022/12/26 07:56:07;;;;;;;;;;;10.10;99.90;;;;;;5031468;28;19916;-50
2022/12/26 07:58:33;;;;;;;;;;;10.20;99.90;;;;;;5030832;28;20007;-48
2022/12/26 08:01:02;;;;;;;;;;;10.30;99.90;;;;;;5031288;28;19959;-46
2022/12/26 08:03:28;;;;;;;;;;;10.30;99.90;;;;;;5031138;28;20288;-49
2022/12/26 08:05:53;;;;;;;;;;;10.30;99.90;;;;;;5031145;28;20059;-52
2022/12/26 08:08:19;;;;;;;;;;;10.30;99.90;;;;;;5030867;28;19916;-50
2022/12/26 08:10:44;;;;;;;;;;;10.30;99.90;;;;;;5030747;28;19909;-52
2022/12/26 08:13:10;;;;;;;;;;;10.30;99.90;;;;;;5031118;28;19959;-48
2022/12/26 08:15:39;;;;;;;;;;;10.30;99.90;;;;;;5031027;28;19959;-47
2022/12/26 08:18:05;;;;;;;;;;;10.30;99.90;;;;;;5030863;28;19963;-46
2022/12/26 08:20:31;;;;;;;;;;;10.30;99.90;;;;;;5030864;28;20039;-49
2022/12/26 08:22:57;;;;;;;;;;;10.30;99.90;;;;;;5030839;28;19953;-50
2022/12/26 08:25:23;;;;;;;;;;;10.30;99.90;;;;;;5031096;28;19955;-46
2022/12/26 08:27:48;;;;;;;;;;;10.40;99.90;;;;;;5030808;28;20008;-47
2022/12/26 08:30:14;;;;;;;;;;;10.40;99.90;;;;;;5030752;28;20381;-47
2022/12/26 08:32:39;;;;;;;;;;;10.40;99.90;;;;;;5031441;28;19908;-47
2022/12/26 08:35:05;;;;;;;;;;;10.40;99.90;;;;;;5030916;28;19909;-51
2022/12/26 08:37:31;;;;;;;;;;;10.50;99.90;;;;;;5030592;28;20330;-48
2022/12/26 08:39:56;;;;;;;;;;;10.40;99.90;;;;;;5030620;28;19916;-52
2022/12/26 08:42:22;;;;;;;;;;;10.40;99.90;;;;;;5030746;28;19920;-51
2022/12/26 08:47:40;;;;;;;;;;;10.30;99.90;;;;;;4989567;28;19944;-55
2022/12/26 08:50:05;;;;;;;;;;;10.40;99.90;;;;;;4990943;28;20374;-53
2022/12/26 08:52:31;;;;;;;;;;;10.40;99.90;;;;;;4991562;28;19960;-56
2022/12/26 08:54:56;;;;;;;;;;;10.40;99.90;;;;;;4991365;28;19917;-54
2022/12/26 08:57:22;;;;;;;;;;;10.40;99.90;;;;;;4991151;28;19918;-54
2022/12/26 08:59:48;;;;;;;;;;;10.40;99.90;;;;;;4991065;28;19909;-55
2022/12/26 09:02:13;;;;;;;;;;;10.50;99.90;;;;;;4991301;28;20359;-54
2022/12/26 09:04:39;;;;;;;;;;;10.40;99.90;;;;;;4991441;28;19916;-51
2022/12/26 09:07:06;;;;;;;;;;;10.50;99.90;;;;;;4991027;28;20436;-55
2022/12/26 09:09:31;;;;;;;;;;;10.50;99.90;;;;;;4991073;28;20374;-54
2022/12/26 09:11:57;;;;;;;;;;;10.50;99.90;;;;;;4991266;28;19913;-54
2022/12/26 09:14:22;;;;;;;;;;;10.60;99.90;;;;;;4991104;28;19957;-53
2022/12/26 09:16:49;;;;;;;;;;;10.50;99.90;;;;;;4991080;28;20097;-55
2022/12/26 09:19:17;;;;;;;;;;;10.50;99.90;;;;;;4991287;28;19960;-51
2022/12/26 09:21:43;;;;;;;;;;;10.50;99.90;;;;;;4991690;28;19909;-54
2022/12/26 09:24:10;;;;;;;;;;;10.50;99.90;;;;;;4994823;28;19910;-54
2022/12/26 09:26:36;;;;;;;;;;;10.40;99.90;;;;;;4994378;28;19910;-55
2022/12/26 09:29:02;;;;;;;;;;;10.50;99.90;;;;;;4994738;28;19972;-55
2022/12/26 09:31:29;;;;;;;;;;;10.40;99.90;;;;;;4994488;28;19952;-52
2022/12/26 09:33:54;;;;;;;;;;;10.50;99.90;;;;;;4994582;28;19956;-55
2022/12/26 09:36:22;;;;;;;;;;;10.40;99.90;;;;;;4994125;28;19910;-53
2022/12/26 09:38:48;;;;;;;;;;;10.40;99.90;;;;;;4994332;28;19937;-55
2022/12/26 09:41:33;;;;;;;;;;;10.40;99.90;;;;;;4994735;28;20000;-56
2022/12/26 09:44:07;;;;;;;;;;;10.50;99.90;;;;;;4994338;28;20334;-56
2022/12/26 09:46:39;;;;;;;;;;;10.70;99.90;;;;;;4993930;28;19961;-54
2022/12/26 09:49:12;;;;;;;;;;;10.80;99.90;;;;;;4994047;28;19913;-54
2022/12/26 09:51:40;;;;;;;;;;;10.80;99.90;;;;;;4994108;28;19909;-57
2022/12/26 09:54:06;;;;;;;;;;;10.90;99.90;;;;;;4994149;28;20281;-53
2022/12/26 09:56:35;;;;;;;;;;;10.90;99.90;;;;;;4993808;28;19913;-56
2022/12/26 09:59:02;;;;;;;;;;;11.00;99.90;;;;;;4994027;28;19905;-56
2022/12/26 10:01:33;;;;;;;;;;;11.00;99.90;;;;;;4994002;28;19960;-56
2022/12/26 10:03:59;;;;;;;;;;;11.00;99.90;;;;;;4993971;28;19984;-56
2022/12/26 10:06:26;;;;;;;;;;;11.10;99.90;;;;;;5008591;28;19909;-55
2022/12/26 10:08:59;;;;;;;;;;;11.30;99.90;;;;;;4993898;28;19916;-54
2022/12/26 10:11:28;;;;;;;;;;;11.50;99.90;;;;;;4993821;28;20374;-55
2022/12/26 10:14:16;;;;;;;;;;;11.50;99.90;;;;;;4993964;28;19910;-57
2022/12/26 10:16:45;;;;;;;;;;;11.50;99.90;;;;;;4993317;28;19914;-55
2022/12/26 10:19:16;;;;;;;;;;;11.60;99.90;;;;;;4993468;28;19920;-55
2022/12/26 10:22:00;;;;;;;;;;;11.50;99.90;;;;;;4993497;28;19953;-55
2022/12/26 10:24:27;;;;;;;;;;;11.40;99.90;;;;;;4993437;28;19909;-55
2022/12/26 10:26:56;;;;;;;;;;;11.30;99.90;;;;;;4993289;28;19920;-56
2022/12/26 10:29:31;;;;;;;;;;;11.30;99.90;;;;;;4993256;28;19913;-56
2022/12/26 10:32:01;;;;;;;;;;;11.40;99.90;;;;;;4993633;28;20341;-56
2022/12/26 10:34:34;;;;;;;;;;;11.50;99.90;;;;;;4993287;28;20458;-56
2022/12/26 10:37:02;;;;;;;;;;;11.50;99.90;;;;;;4993033;28;19909;-55
2022/12/26 10:39:38;;;;;;;;;;;11.60;99.90;;;;;;4993040;28;19917;-56
2022/12/26 10:42:10;;;;;;;;;;;11.70;99.90;;;;;;4993180;28;19957;-55
2022/12/26 10:44:36;;;;;;;;;;;11.70;99.90;;;;;;4993244;28;19956;-56
2022/12/26 10:47:14;;;;;;;;;;;11.70;99.90;;;;;;4992939;28;19940;-58
2022/12/26 10:49:41;;;;;;;;;;;11.70;99.90;;;;;;4992918;28;19910;-56
2022/12/26 10:52:09;;;;;;;;;;;11.50;99.90;;;;;;5008037;28;19910;-54
2022/12/26 10:54:35;;;;;;;;;;;11.40;99.90;;;;;;4992957;28;20004;-55
2022/12/26 10:57:00;;;;;;;;;;;11.40;99.90;;;;;;4992649;28;20004;-54
2022/12/26 10:59:35;;;;;;;;;;;11.40;99.90;;;;;;4993055;28;19909;-54
2022/12/26 11:02:30;;;;;;;;;;;11.40;99.90;;;;;;4992908;28;19914;-56
2022/12/26 11:05:01;;;;;;;;;;;11.50;99.90;;;;;;4988039;28;19909;-56
2022/12/26 11:07:29;;;;;;;;;;;11.60;99.90;;;;;;4991329;28;19913;-55
2022/12/26 11:09:57;;;;;;;;;;;11.60;99.90;;;;;;4992446;28;20381;-55
2022/12/26 11:12:40;;;;;;;;;;;11.60;99.90;;;;;;4992714;28;19921;-56
2022/12/26 11:15:17;;;;;;;;;;;11.60;99.90;;;;;;4992588;28;19964;-55
2022/12/26 11:17:43;;;;;;;;;;;11.60;99.90;;;;;;4992396;28;19910;-55
2022/12/26 11:20:15;;;;;;;;;;;11.60;99.90;;;;;;4992400;28;19910;-54
2022/12/26 11:22:44;;;;;;;;;;;11.60;99.90;;;;;;4992412;28;19913;-55
2022/12/26 11:25:17;;;;;;;;;;;11.60;99.90;;;;;;4992457;28;19941;-56
2022/12/26 11:27:51;;;;;;;;;;;11.60;99.90;;;;;;4992155;28;20358;-56
2022/12/26 11:30:21;;;;;;;;;;;11.50;99.90;;;;;;4992129;28;19910;-56
2022/12/26 11:32:49;;;;;;;;;;;11.50;99.90;;;;;;4992268;28;20402;-56
2022/12/26 11:35:25;;;;;;;;;;;11.50;99.90;;;;;;4992147;28;19956;-55
2022/12/26 11:37:55;;;;;;;;;;;11.50;99.90;;;;;;4991990;28;19910;-56
2022/12/26 11:40:23;;;;;;;;;;;11.40;99.90;;;;;;4991953;28;19935;-54
2022/12/26 11:42:54;;;;;;;;;;;11.30;99.90;;;;;;4992275;28;20271;-56
2022/12/26 11:45:24;;;;;;;;;;;11.40;99.90;;;;;;4991656;28;19920;-55
2022/12/26 11:47:52;;;;;;;;;;;11.50;99.90;;;;;;4991985;28;19909;-55
2022/12/26 11:50:20;;;;;;;;;;;11.50;99.90;;;;;;4991848;28;20094;-54
2022/12/26 11:52:54;;;;;;;;;;;11.60;99.90;;;;;;4991935;28;19909;-54
2022/12/26 11:55:23;;;;;;;;;;;11.70;99.90;;;;;;4992009;28;19910;-56
2022/12/26 11:57:58;;;;;;;;;;;11.70;99.90;;;;;;4991889;28;20316;-53
2022/12/26 12:00:25;;;;;;;;;;;11.70;99.90;;;;;;4991793;28;19924;-51
2022/12/26 12:02:50;;;;;;;;;;;11.70;99.90;;;;;;4991814;28;20004;-54
2022/12/26 12:05:34;;;;;;;;;;;11.80;99.90;;;;;;4991719;28;20056;-55
2022/12/26 12:08:06;;;;;;;;;;;11.80;99.90;;;;;;4991655;28;19916;-55
2022/12/26 12:10:35;;;;;;;;;;;11.90;99.90;;;;;;4991625;28;19914;-56
2022/12/26 12:13:06;;;;;;;;;;;12.10;99.90;;;;;;4991813;28;19914;-56
2022/12/26 12:15:40;;;;;;;;;;;12.00;99.90;;;;;;4991762;28;19921;-53
2022/12/26 12:18:12;;;;;;;;;;;12.00;99.90;;;;;;4991757;28;19910;-55
2022/12/26 12:20:43;;;;;;;;;;;12.00;99.90;;;;;;4991510;28;19909;-56
2022/12/26 12:23:15;;;;;;;;;;;11.90;99.90;;;;;;4991688;28;20437;-56
2022/12/26 12:25:56;;;;;;;;;;;11.80;99.90;;;;;;4991782;28;20395;-56
2022/12/26 12:28:44;;;;;;;;;;;11.70;99.90;;;;;;4991805;28;19914;-54
2022/12/26 12:31:20;;;;;;;;;;;11.60;99.90;;;;;;4991711;28;19910;-52
2022/12/26 12:33:52;;;;;;;;;;;11.40;99.90;;;;;;4991679;28;19916;-54
2022/12/26 12:36:29;;;;;;;;;;;11.30;99.90;;;;;;4991443;28;19909;-55
2022/12/26 12:39:09;;;;;;;;;;;11.00;99.90;;;;;;4991625;28;20421;-54
2022/12/26 12:41:38;;;;;;;;;;;10.80;99.90;;;;;;4991953;28;19909;-53
2022/12/26 12:44:03;;;;;;;;;;;10.50;99.90;;;;;;4991932;28;19967;-55
2022/12/26 12:46:32;;;;;;;;;;;10.20;99.90;;;;;;4991338;28;19918;-55
2022/12/26 12:49:22;;;;;;;;;;;10.10;99.90;;;;;;4991332;28;20386;-53
2022/12/26 12:51:59;;;;;;;;;;;9.80;99.90;;;;;;4988712;28;19917;-53
2022/12/26 12:54:35;;;;;;;;;;;9.80;99.90;;;;;;4991705;28;20358;-51
2022/12/26 12:57:01;;;;;;;;;;;9.70;99.90;;;;;;4992647;28;20217;-54
2022/12/26 12:59:46;;;;;;;;;;;9.70;99.90;;;;;;5010206;28;20073;-54
2022/12/26 13:02:27;;;;;;;;;;;9.60;99.90;;;;;;4984075;28;19917;-54
2022/12/26 13:05:01;;;;;;;;;;;9.60;99.90;;;;;;4995422;28;19964;-54
2022/12/26 13:07:38;;;;;;;;;;;9.50;99.90;;;;;;4995193;28;19984;-56
2022/12/26 13:10:10;;;;;;;;;;;9.40;99.90;;;;;;4995100;28;19921;-54
2022/12/26 13:12:38;;;;;;;;;;;9.30;99.90;;;;;;4995509;28;19914;-55
2022/12/26 13:15:07;;;;;;;;;;;9.30;99.90;;;;;;4995215;28;20390;-54
2022/12/26 13:17:37;;;;;;;;;;;9.40;99.90;;;;;;4994996;28;19914;-56
2022/12/26 13:20:04;;;;;;;;;;;9.30;99.90;;;;;;4994885;28;19989;-54
2022/12/26 13:24:22;;;;;;;;;;;9.20;99.90;;;;;;4994989;28;19914;-56
2022/12/26 13:25:22;;;;;;;;;;;9.20;99.90;;;;;;4994955;28;19917;-55
2022/12/26 13:27:49;;;;;;;;;;;9.20;99.90;;;;;;4994831;28;19906;-54
2022/12/26 13:30:15;;;;;;;;;;;9.20;99.90;;;;;;4994740;28;19910;-55
2022/12/26 13:32:43;;;;;;;;;;;9.20;99.90;;;;;;4994821;28;19968;-53
2022/12/26 13:35:28;;;;;;;;;;;9.20;99.90;;;;;;4994782;28;19910;-56
2022/12/26 13:37:55;;;;;;;;;;;9.20;99.90;;;;;;4994460;28;19910;-54
2022/12/26 13:40:24;;;;;;;;;;;9.30;99.90;;;;;;4994320;28;19957;-55
2022/12/26 13:45:49;;;;;;;;;;;9.30;99.90;;;;;;4994382;28;20032;-55
2022/12/26 13:48:15;;;;;;;;;;;9.30;99.90;;;;;;4994178;28;19910;-55
2022/12/26 13:50:47;;;;;;;;;;;9.30;99.90;;;;;;5009231;28;19917;-56
2022/12/26 13:53:27;;;;;;;;;;;9.20;99.90;;;;;;4994240;28;19936;-55
2022/12/26 13:55:53;;;;;;;;;;;9.30;99.90;;;;;;4994238;28;19909;-54
2022/12/26 13:58:21;;;;;;;;;;;9.20;99.90;;;;;;4994192;28;19913;-55
2022/12/26 14:00:48;;;;;;;;;;;9.10;99.90;;;;;;4993917;28;19910;-54
2022/12/26 14:03:14;;;;;;;;;;;8.90;99.90;;;;;;4993946;28;19964;-56
2022/12/26 14:05:49;;;;;;;;;;;8.70;99.90;;;;;;4994049;28;19953;-55
2022/12/26 14:08:35;;;;;;;;;;;8.70;99.90;;;;;;4993384;28;19941;-54
2022/12/26 14:11:09;;;;;;;;;;;8.60;99.90;;;;;;4994054;28;20008;-56
2022/12/26 14:13:43;;;;;;;;;;;8.60;99.90;;;;;;4994021;28;19921;-54
2022/12/26 14:16:19;;;;;;;;;;;8.50;99.90;;;;;;4993750;28;20001;-56
2022/12/26 14:19:03;;;;;;;;;;;8.40;99.90;;;;;;4993586;28;19953;-54
2022/12/26 14:21:37;;;;;;;;;;;8.30;99.90;;;;;;4993753;28;19932;-55
2022/12/26 14:24:03;;;;;;;;;;;8.20;99.90;;;;;;5008780;28;19913;-52
2022/12/26 14:26:35;;;;;;;;;;;8.20;99.90;;;;;;4993384;28;19910;-55
2022/12/26 14:29:19;;;;;;;;;;;8.10;99.90;;;;;;4993289;28;19909;-55
2022/12/26 14:31:44;;;;;;;;;;;8.20;99.90;;;;;;4993655;28;19909;-55
2022/12/26 14:34:29;;;;;;;;;;;8.20;99.90;;;;;;4993398;28;19910;-54
2022/12/26 14:36:57;;;;;;;;;;;8.10;99.90;;;;;;4993130;28;19917;-56
2022/12/26 14:39:23;;;;;;;;;;;8.00;99.90;;;;;;4993110;28;19917;-53
2022/12/26 14:44:51;;;;;;;;;;;8.00;99.90;;;;;;4993156;28;19955;-56
2022/12/26 14:47:35;;;;;;;;;;;7.90;99.90;;;;;;5047091;22;20019;-60
2022/12/26 14:50:20;;;;;;;;;;;8.00;99.90;;;;;;5051825;28;19909;-61
2022/12/26 14:52:46;;;;;;;;;;;7.90;99.90;;;;;;5052675;28;19909;-61
2022/12/26 14:55:44;;;;;;;;;;;7.90;99.90;;;;;;5052317;28;19909;-61
2022/12/26 14:58:25;;;;;;;;;;;7.90;99.90;;;;;;4998601;28;19964;-61
2022/12/26 15:00:51;;;;;;;;;;;7.80;99.90;;;;;;5030605;28;20304;-60
2022/12/26 15:03:30;;;;;;;;;;;7.90;99.90;;;;;;5032068;28;19916;-61
2022/12/26 15:06:03;;;;;;;;;;;7.90;99.90;;;;;;5032314;28;20293;-60
2022/12/26 15:08:44;;;;;;;;;;;7.90;99.90;;;;;;5031947;28;20244;-60
2022/12/26 15:11:21;;;;;;;;;;;7.80;99.90;;;;;;5031971;28;19960;-60
2022/12/26 15:14:05;;;;;;;;;;;7.80;99.90;;;;;;5032138;28;19920;-60
2022/12/26 15:16:31;;;;;;;;;;;7.80;99.90;;;;;;5031834;28;19909;-60
2022/12/26 15:19:03;;;;;;;;;;;7.80;99.90;;;;;;5031334;28;19974;-61
2022/12/26 15:21:46;;;;;;;;;;;7.70;99.90;;;;;;5031594;28;20346;-61
2022/12/26 15:24:44;;;;;;;;;;;7.60;99.90;;;;;;5032007;28;19913;-60
2022/12/26 15:27:16;;;;;;;;;;;7.50;99.90;;;;;;4998144;28;20085;-60
2022/12/26 15:30:00;;;;;;;;;;;7.50;99.90;;;;;;5031526;28;19962;-61
2022/12/26 15:32:31;;;;;;;;;;;7.50;99.90;;;;;;5031588;28;19913;-61
2022/12/26 15:34:57;;;;;;;;;;;7.30;99.90;;;;;;5032061;28;19936;-60
2022/12/26 15:37:22;;;;;;;;;;;7.30;99.90;;;;;;5031441;28;20305;-60
2022/12/26 15:39:54;;;;;;;;;;;7.30;99.90;;;;;;5031363;28;20036;-60
2022/12/26 15:42:23;;;;;;;;;;;7.30;99.90;;;;;;5031358;28;20409;-60
2022/12/26 15:45:07;;;;;;;;;;;7.20;99.90;;;;;;5031617;28;19909;-60
2022/12/26 15:47:41;;;;;;;;;;;7.20;99.90;;;;;;5031091;28;19959;-61
2022/12/26 15:50:11;;;;;;;;;;;7.20;99.90;;;;;;5031644;28;19955;-60
2022/12/26 15:52:49;;;;;;;;;;;7.20;99.90;;;;;;5031335;28;19920;-60
2022/12/26 15:55:33;;;;;;;;;;;7.20;99.90;;;;;;5031446;28;19909;-60
2022/12/26 15:58:28;;;;;;;;;;;7.10;99.90;;;;;;5031219;28;20285;-61
2022/12/26 16:00:54;;;;;;;;;;;7.20;99.90;;;;;;5013031;28;19916;-60
2022/12/26 16:03:28;;;;;;;;;;;7.20;99.90;;;;;;5031172;28;20277;-60
2022/12/26 16:06:03;;;;;;;;;;;7.20;99.90;;;;;;5031231;28;19915;-59
2022/12/26 16:08:53;;;;;;;;;;;7.00;99.90;;;;;;5031048;28;19913;-60
2022/12/26 16:11:20;;;;;;;;;;;6.80;99.90;;;;;;5031093;28;19909;-60
2022/12/26 16:13:47;;;;;;;;;;;6.60;99.90;;;;;;5031384;28;19913;-61
2022/12/26 16:16:22;;;;;;;;;;;6.50;99.90;;;;;;5031051;28;19909;-60
2022/12/26 16:18:47;;;;;;;;;;;6.50;99.90;;;;;;5030960;28;20576;-61
2022/12/26 16:23:57;;;;;;;;;;;6.30;99.90;;;;;;5030911;28;20320;-62
2022/12/26 16:26:27;;;;;;;;;;;6.30;99.90;;;;;;5030765;28;19913;-61
2022/12/26 16:28:54;;;;;;;;;;;6.20;99.90;;;;;;5030810;28;19909;-61
2022/12/26 16:31:22;;;;;;;;;;;6.20;99.90;;;;;;5032942;28;19913;-62
2022/12/26 16:33:49;;;;;;;;;;;6.10;99.90;;;;;;5035473;28;19913;-61
2022/12/26 16:36:17;;;;;;;;;;;6.10;99.90;;;;;;5035020;28;19909;-61
2022/12/26 16:38:43;;;;;;;;;;;6.00;99.90;;;;;;5034720;28;20270;-61
2022/12/26 16:41:18;;;;;;;;;;;6.00;99.90;;;;;;5034996;28;19931;-61
2022/12/26 16:43:44;;;;;;;;;;;6.00;99.90;;;;;;5034843;28;19913;-61
2022/12/26 16:46:10;;;;;;;;;;;5.90;99.90;;;;;;5034659;28;19909;-61
2022/12/26 16:48:35;;;;;;;;;;;6.00;99.90;;;;;;5034465;28;19951;-61
2022/12/26 16:51:02;;;;;;;;;;;5.90;99.90;;;;;;5034707;28;19936;-61
2022/12/26 16:53:34;;;;;;;;;;;5.90;99.90;;;;;;5034603;28;19967;-61
2022/12/26 16:56:18;;;;;;;;;;;5.90;99.90;;;;;;5034784;28;20282;-61